CU-0040 weather

San Carlos Airport
Camag├╝ey, Cuba

Public forecast

Using degrees Celsius for public forecast. Weather courtesy of forecast.io.

Closest aviation weather report (METAR) to San Carlos Airport

Closest report is Ignacio Agramonte International Airport, 26.7 nm (49.4 km) NE. Retrieved 2020/08/06 09:05 UTC (45 minutes ago):

MUCM 060905Z AUTO 04006KT 25/25 Q1015

Closest aviation forecast (TAF) to San Carlos Airport

Forecast is more than 12 hours old.

Closest forecast is Ignacio Agramonte International Airport, 26.7 nm (49.4 km) NE. Retrieved 2020/08/05 18:05 UTC (16 hours ago):

TAF MUCM 051700Z 0518/0618 09006KT 9000 SCT020 TEMPO 0518/0524 VRB10KT 3000 TSRA SCT018CB BKN020 BECMG 0603/0605 03005KT BECMG 0615/0617 07008KT